Time;durP1;ratioP1;P1;durP2;ratioP2;P2;SDS_P1;SDS_P2;PMS_P1;PMS_P2;Temp;Humidity;BMP_temperature;BMP_pressure;BME280_temperature;BME280_humidity;BME280_pressure;Samples;Min_cycle;Max_cycle;Signal;HPM_P1;HPM_P2
2022/09/10 00:01:05;;;;;;;4.27;1.50;;;16.70;99.90;;;;;;6198551;23;20397;-86
2022/09/10 00:03:32;;;;;;;4.60;1.33;;;16.70;99.90;;;;;;6196799;23;20893;-85
2022/09/10 00:05:58;;;;;;;2.23;1.20;;;16.60;99.90;;;;;;6204294;23;20429;-86
2022/09/10 00:08:25;;;;;;;4.87;1.93;;;16.60;99.90;;;;;;6201567;23;20451;-85
2022/09/10 00:10:52;;;;;;;4.23;1.30;;;16.60;99.90;;;;;;6189967;23;20410;-86
2022/09/10 00:13:22;;;;;;;3.33;1.90;;;16.60;99.90;;;;;;6187280;23;20396;-85
2022/09/10 00:15:53;;;;;;;3.50;1.47;;;16.60;99.90;;;;;;6185809;23;20478;-86
2022/09/10 00:18:22;;;;;;;4.03;1.60;;;16.60;99.90;;;;;;6184920;23;20408;-85
2022/09/10 00:20:56;;;;;;;2.73;1.53;;;16.60;99.90;;;;;;6185095;23;20414;-88
2022/09/10 00:23:25;;;;;;;2.93;1.70;;;16.60;99.90;;;;;;6190518;23;20859;-86
2022/09/10 00:25:53;;;;;;;3.53;1.40;;;16.70;99.90;;;;;;6185830;23;20887;-85
2022/09/10 00:28:21;;;;;;;3.70;1.53;;;16.70;99.90;;;;;;6187222;23;20439;-84
2022/09/10 00:30:50;;;;;;;2.47;1.17;;;16.60;99.90;;;;;;6188478;23;20469;-86
2022/09/10 00:33:19;;;;;;;3.80;1.60;;;16.60;99.90;;;;;;6195647;23;20485;-87
2022/09/10 00:35:47;;;;;;;2.80;1.43;;;16.70;99.90;;;;;;6189097;23;20462;-85
2022/09/10 00:38:17;;;;;;;4.50;1.30;;;16.70;99.90;;;;;;6187674;23;20402;-87
2022/09/10 00:40:44;;;;;;;6.30;2.50;;;16.70;99.90;;;;;;6185771;23;20735;-85
2022/09/10 00:43:13;;;;;;;4.37;1.77;;;16.80;99.90;;;;;;6185545;23;20414;-87
2022/09/10 00:45:42;;;;;;;2.33;1.40;;;16.70;99.90;;;;;;6184717;23;20426;-85
2022/09/10 00:48:16;;;;;;;4.37;1.50;;;16.70;99.90;;;;;;6184688;23;20753;-85
2022/09/10 00:50:46;;;;;;;3.73;1.80;;;16.70;99.90;;;;;;6184168;23;20379;-85
2022/09/10 00:53:18;;;;;;;2.80;1.73;;;16.70;99.90;;;;;;6184703;23;20375;-85
2022/09/10 00:55:49;;;;;;;4.97;2.10;;;16.60;99.90;;;;;;6184158;23;20416;-86
2022/09/10 00:58:18;;;;;;;1.63;1.30;;;16.70;99.90;;;;;;6185890;23;20917;-85
2022/09/10 01:00:45;;;;;;;4.10;2.33;;;16.70;99.90;;;;;;6192701;23;20429;-85
2022/09/10 01:03:14;;;;;;;2.93;1.77;;;16.70;99.90;;;;;;6190517;23;20418;-88
2022/09/10 01:05:44;;;;;;;5.67;2.37;;;16.70;99.90;;;;;;6186677;23;20885;-85
2022/09/10 01:08:14;;;;;;;3.97;1.70;;;16.60;99.90;;;;;;6185103;23;20438;-85
2022/09/10 01:10:52;;;;;;;3.23;2.03;;;16.50;99.90;;;;;;6188172;23;20413;-84
2022/09/10 01:13:29;;;;;;;5.07;1.90;;;16.40;99.90;;;;;;6205681;23;20378;-87
2022/09/10 01:16:07;;;;;;;3.30;1.87;;;16.30;99.90;;;;;;6200722;23;20434;-86
2022/09/10 01:18:44;;;;;;;3.57;1.60;;;16.30;99.90;;;;;;6186318;23;20385;-84
2022/09/10 01:21:18;;;;;;;2.83;1.97;;;16.20;99.90;;;;;;6204519;23;20481;-85
2022/09/10 01:24:12;;;;;;;6.30;3.23;;;16.20;99.90;;;;;;6189658;23;20378;-86
2022/09/10 01:27:06;;;;;;;5.30;2.23;;;16.20;99.90;;;;;;6185007;23;20491;-86
2022/09/10 01:29:39;;;;;;;4.43;1.73;;;16.20;99.90;;;;;;6187558;23;20452;-85
2022/09/10 01:32:14;;;;;;;5.30;2.10;;;16.30;99.90;;;;;;6191299;23;20391;-85
2022/09/10 01:34:45;;;;;;;2.50;1.80;;;16.20;99.90;;;;;;6189114;23;20394;-86
2022/09/10 01:37:17;;;;;;;2.87;1.73;;;16.10;99.90;;;;;;6210108;23;20490;-86
2022/09/10 01:39:46;;;;;;;6.47;1.90;;;16.00;99.90;;;;;;6207699;23;20379;-86
2022/09/10 01:42:13;;;;;;;6.33;1.83;;;16.00;99.90;;;;;;6195905;23;20428;-86
2022/09/10 01:44:47;;;;;;;3.77;2.13;;;16.00;99.90;;;;;;6208807;23;20430;-86
2022/09/10 01:47:21;;;;;;;3.80;2.90;;;16.00;99.90;;;;;;6208704;23;20430;-86
2022/09/10 01:50:02;;;;;;;3.63;1.80;;;16.00;99.90;;;;;;6212130;23;20445;-87
2022/09/10 01:52:41;;;;;;;5.83;2.30;;;16.00;99.90;;;;;;6205478;23;20392;-85
2022/09/10 01:55:18;;;;;;;5.30;1.90;;;15.90;99.90;;;;;;6197844;23;20404;-85
2022/09/10 01:57:54;;;;;;;2.47;1.77;;;15.90;99.90;;;;;;6186422;23;20441;-86
2022/09/10 02:00:25;;;;;;;2.93;1.53;;;15.90;99.90;;;;;;6184889;23;20421;-86
2022/09/10 02:02:59;;;;;;;9.63;2.30;;;15.80;99.90;;;;;;6184958;23;20387;-86
2022/09/10 02:05:28;;;;;;;2.90;1.63;;;15.80;99.90;;;;;;6185590;23;20404;-86
2022/09/10 02:08:00;;;;;;;3.50;2.30;;;15.80;99.90;;;;;;6184146;23;20834;-86
2022/09/10 02:10:28;;;;;;;7.80;2.47;;;15.70;99.90;;;;;;6184241;23;20395;-86
2022/09/10 02:12:55;;;;;;;4.53;1.87;;;15.70;99.90;;;;;;6183842;23;20441;-86
2022/09/10 02:15:27;;;;;;;3.77;1.93;;;15.80;99.90;;;;;;6185015;23;20415;-86
2022/09/10 02:17:55;;;;;;;4.07;1.90;;;15.70;99.90;;;;;;6187544;23;20496;-86
2022/09/10 02:20:22;;;;;;;4.40;2.70;;;15.70;99.90;;;;;;6186277;23;20412;-85
2022/09/10 02:22:53;;;;;;;3.20;2.50;;;15.70;99.90;;;;;;6185239;23;20395;-85
2022/09/10 02:25:20;;;;;;;3.70;2.73;;;15.70;99.90;;;;;;6187144;23;20395;-86
2022/09/10 02:27:47;;;;;;;3.57;2.07;;;15.70;99.90;;;;;;6186513;23;20437;-86
2022/09/10 02:30:15;;;;;;;7.37;2.43;;;15.70;99.90;;;;;;6184411;23;20438;-86
2022/09/10 02:32:44;;;;;;;5.50;2.70;;;15.70;99.90;;;;;;6184055;23;20395;-86
2022/09/10 02:35:10;;;;;;;5.63;2.70;;;15.80;99.90;;;;;;6184442;23;20410;-86
2022/09/10 02:37:37;;;;;;;3.70;2.30;;;15.70;99.90;;;;;;6184953;23;20436;-86
2022/09/10 02:40:05;;;;;;;6.30;2.37;;;15.80;99.90;;;;;;6189000;23;20737;-86
2022/09/10 02:42:32;;;;;;;4.40;2.83;;;15.70;99.90;;;;;;6185488;23;20411;-86
2022/09/10 02:44:59;;;;;;;4.40;2.13;;;15.60;99.90;;;;;;6193237;23;20503;-86
2022/09/10 02:47:27;;;;;;;3.37;1.60;;;15.60;99.90;;;;;;6205123;23;20430;-86
2022/09/10 02:49:55;;;;;;;5.40;2.20;;;15.60;99.90;;;;;;6189416;23;20445;-86
2022/09/10 02:52:22;;;;;;;2.10;1.43;;;15.50;99.90;;;;;;6186867;23;20414;-86
2022/09/10 02:54:50;;;;;;;4.83;1.80;;;15.50;99.90;;;;;;6187694;23;20415;-85
2022/09/10 02:57:16;;;;;;;4.63;1.50;;;15.50;99.90;;;;;;6187098;23;20953;-86
2022/09/10 02:59:43;;;;;;;3.10;1.20;;;15.50;99.90;;;;;;6186160;23;20421;-86
2022/09/10 03:02:10;;;;;;;2.93;1.47;;;15.50;99.90;;;;;;6190342;23;20410;-86
2022/09/10 03:04:37;;;;;;;2.83;1.83;;;15.50;99.90;;;;;;6209427;23;20469;-86
2022/09/10 03:07:05;;;;;;;6.73;1.80;;;15.50;99.90;;;;;;6202437;23;20428;-85
2022/09/10 03:09:32;;;;;;;5.40;1.90;;;15.50;99.90;;;;;;6203378;23;20427;-86
2022/09/10 03:11:58;;;;;;;6.50;2.40;;;15.50;99.90;;;;;;6187579;23;20403;-86
2022/09/10 03:14:27;;;;;;;4.73;2.73;;;15.50;99.90;;;;;;6185407;23;20417;-86
2022/09/10 03:16:54;;;;;;;6.77;4.00;;;15.50;99.90;;;;;;6185117;23;20434;-86
2022/09/10 03:19:20;;;;;;;5.40;2.83;;;15.50;99.90;;;;;;6185475;23;20431;-86
2022/09/10 03:21:47;;;;;;;5.03;3.07;;;15.60;99.90;;;;;;6185823;23;20736;-86
2022/09/10 03:24:15;;;;;;;5.60;3.70;;;15.60;99.90;;;;;;6185564;23;20417;-86
2022/09/10 03:26:43;;;;;;;5.50;3.00;;;15.60;99.90;;;;;;6186973;23;20937;-86
2022/09/10 03:29:09;;;;;;;5.00;2.30;;;15.60;99.90;;;;;;6212357;23;20450;-87
2022/09/10 03:31:36;;;;;;;6.17;2.87;;;15.60;99.90;;;;;;6198272;23;20891;-85
2022/09/10 03:34:04;;;;;;;3.20;2.47;;;15.60;99.90;;;;;;6192344;23;20424;-85
2022/09/10 03:36:31;;;;;;;4.63;3.10;;;15.60;99.90;;;;;;6209770;23;20432;-87
2022/09/10 03:38:58;;;;;;;3.40;2.20;;;15.60;99.90;;;;;;6189207;23;20417;-86
2022/09/10 03:41:27;;;;;;;3.80;2.10;;;15.50;99.90;;;;;;6189532;23;20414;-85
2022/09/10 03:43:54;;;;;;;4.70;2.13;;;15.50;99.90;;;;;;6200755;23;20417;-86
2022/09/10 03:46:22;;;;;;;6.07;2.20;;;15.50;99.90;;;;;;6203747;23;20430;-85
2022/09/10 03:48:48;;;;;;;4.60;2.40;;;15.50;99.90;;;;;;6193519;23;20450;-85
2022/09/10 03:51:15;;;;;;;4.67;2.30;;;15.50;99.90;;;;;;6189796;23;21017;-86
2022/09/10 03:53:43;;;;;;;4.57;2.47;;;15.40;99.90;;;;;;6185458;23;20406;-85
2022/09/10 03:56:10;;;;;;;3.20;1.83;;;15.40;99.90;;;;;;6185281;23;20437;-85
2022/09/10 03:58:38;;;;;;;2.20;2.00;;;15.40;99.90;;;;;;6184927;23;20465;-86
2022/09/10 04:01:05;;;;;;;4.13;1.93;;;15.40;99.90;;;;;;6185606;23;20541;-86
2022/09/10 04:03:32;;;;;;;4.27;2.07;;;15.40;99.90;;;;;;6186100;23;20421;-86
2022/09/10 04:05:59;;;;;;;5.80;2.20;;;15.30;99.90;;;;;;6186936;23;20763;-85
2022/09/10 04:08:25;;;;;;;2.50;1.90;;;15.40;99.90;;;;;;6186320;23;20413;-86
2022/09/10 04:10:52;;;;;;;1.83;1.50;;;15.40;99.90;;;;;;6185992;23;20898;-86
2022/09/10 04:13:19;;;;;;;3.63;2.33;;;15.30;99.90;;;;;;6193341;23;20900;-86
2022/09/10 04:15:47;;;;;;;3.17;1.77;;;15.30;99.90;;;;;;6185664;23;20399;-86
2022/09/10 04:18:14;;;;;;;2.70;2.20;;;15.40;99.90;;;;;;6185383;23;20394;-86
2022/09/10 04:20:41;;;;;;;5.30;1.73;;;15.40;99.90;;;;;;6184896;23;20395;-86
2022/09/10 04:23:07;;;;;;;2.73;2.10;;;15.40;99.90;;;;;;6184211;23;20745;-86
2022/09/10 04:25:34;;;;;;;3.33;1.70;;;15.40;99.90;;;;;;6184236;23;20908;-85
2022/09/10 04:28:01;;;;;;;5.93;1.50;;;15.30;99.90;;;;;;6184741;23;20406;-86
2022/09/10 04:30:28;;;;;;;1.83;1.67;;;15.30;99.90;;;;;;6187294;23;20474;-86
2022/09/10 04:32:56;;;;;;;2.70;1.50;;;15.40;99.90;;;;;;6207079;23;20417;-86
2022/09/10 04:35:25;;;;;;;2.57;1.80;;;15.30;99.90;;;;;;6202544;23;20420;-86
2022/09/10 04:37:52;;;;;;;3.53;1.70;;;15.30;99.90;;;;;;6205960;23;20428;-86
2022/09/10 04:40:19;;;;;;;2.80;1.40;;;15.30;99.90;;;;;;6197905;23;20452;-86
2022/09/10 04:42:46;;;;;;;2.30;1.20;;;15.50;99.90;;;;;;6195771;23;20481;-86
2022/09/10 04:45:12;;;;;;;3.20;1.70;;;15.50;99.90;;;;;;6184994;23;20775;-86
2022/09/10 04:47:39;;;;;;;1.60;1.13;;;15.50;99.90;;;;;;6184192;23;20963;-86
2022/09/10 04:50:09;;;;;;;4.70;2.03;;;15.50;99.90;;;;;;6183947;23;20478;-86
2022/09/10 04:52:35;;;;;;;2.23;1.30;;;15.50;99.90;;;;;;6194138;23;20391;-86
2022/09/10 04:55:02;;;;;;;2.10;1.30;;;15.50;99.90;;;;;;6196282;23;20399;-86
2022/09/10 04:57:29;;;;;;;2.17;1.00;;;15.50;99.90;;;;;;6186674;23;20486;-86
2022/09/10 04:59:55;;;;;;;1.67;1.40;;;15.50;99.90;;;;;;6194178;23;20412;-86
2022/09/10 05:02:22;;;;;;;3.50;1.63;;;15.50;99.90;;;;;;6204791;23;20402;-87
2022/09/10 05:04:50;;;;;;;3.50;1.20;;;15.60;99.90;;;;;;6199539;23;20391;-87
2022/09/10 05:07:18;;;;;;;3.33;1.20;;;15.60;99.90;;;;;;6197667;23;20433;-86
2022/09/10 05:09:45;;;;;;;3.30;1.50;;;15.70;99.90;;;;;;6187080;23;20431;-86
2022/09/10 05:12:11;;;;;;;2.60;1.90;;;15.70;99.90;;;;;;6186360;23;20402;-86
2022/09/10 05:14:38;;;;;;;2.27;1.40;;;15.70;99.90;;;;;;6186307;23;20413;-86
2022/09/10 05:17:05;;;;;;;3.30;1.30;;;15.80;99.90;;;;;;6185434;23;20953;-87
2022/09/10 05:19:32;;;;;;;1.87;0.83;;;15.80;99.90;;;;;;6190028;23;20745;-86
2022/09/10 05:21:59;;;;;;;3.00;1.50;;;15.90;99.90;;;;;;6197966;23;20414;-86
2022/09/10 05:24:27;;;;;;;1.50;1.10;;;15.90;99.90;;;;;;6185251;23;20463;-86
2022/09/10 05:26:55;;;;;;;1.57;1.00;;;15.90;99.90;;;;;;6184395;23;20419;-85
2022/09/10 05:29:22;;;;;;;3.03;1.13;;;15.90;99.90;;;;;;6184350;23;20442;-86
2022/09/10 05:31:49;;;;;;;3.43;1.20;;;16.00;99.90;;;;;;6184440;23;20417;-86
2022/09/10 05:34:15;;;;;;;3.67;1.97;;;16.00;99.90;;;;;;6185816;23;20465;-85
2022/09/10 05:36:42;;;;;;;2.87;1.10;;;16.00;99.90;;;;;;6185920;23;20816;-86
2022/09/10 05:39:09;;;;;;;2.97;1.10;;;16.10;99.90;;;;;;6204119;23;20948;-85
2022/09/10 05:41:37;;;;;;;2.13;1.30;;;16.10;99.90;;;;;;6189526;23;20381;-85
2022/09/10 05:44:04;;;;;;;2.27;1.00;;;16.10;99.90;;;;;;6184367;23;20444;-85
2022/09/10 05:46:32;;;;;;;3.50;1.00;;;16.20;99.90;;;;;;6183682;23;20433;-85
2022/09/10 05:48:59;;;;;;;2.23;1.10;;;16.20;99.90;;;;;;6184232;23;20500;-85
2022/09/10 05:51:28;;;;;;;4.17;0.93;;;16.30;99.90;;;;;;6184619;23;20394;-84
2022/09/10 05:53:56;;;;;;;2.07;1.20;;;16.30;99.90;;;;;;6184186;23;20411;-85
2022/09/10 05:56:24;;;;;;;2.07;0.80;;;16.30;99.90;;;;;;6184037;23;20440;-85
2022/09/10 05:58:52;;;;;;;1.87;1.20;;;16.30;99.90;;;;;;6184112;23;20534;-85
2022/09/10 06:01:19;;;;;;;1.97;1.13;;;16.30;99.90;;;;;;6184556;23;20406;-85
2022/09/10 06:03:47;;;;;;;2.70;1.10;;;16.30;99.90;;;;;;6197235;23;20406;-85
2022/09/10 06:06:14;;;;;;;2.30;1.10;;;16.40;99.90;;;;;;6199566;23;20520;-85
2022/09/10 06:08:40;;;;;;;3.23;2.83;;;16.40;99.90;;;;;;6189495;23;20785;-85
2022/09/10 06:11:09;;;;;;;2.47;1.40;;;16.50;99.90;;;;;;6196156;23;20441;-86
2022/09/10 06:13:38;;;;;;;2.10;0.87;;;16.40;99.90;;;;;;6185217;23;20402;-85
2022/09/10 06:16:07;;;;;;;2.63;1.00;;;16.50;99.90;;;;;;6185950;23;20431;-85
2022/09/10 06:18:34;;;;;;;1.93;0.93;;;16.50;99.90;;;;;;6187257;23;20703;-86
2022/09/10 06:21:03;;;;;;;3.47;1.50;;;16.50;99.90;;;;;;6186370;23;20407;-85
2022/09/10 06:23:30;;;;;;;3.60;1.40;;;16.50;99.90;;;;;;6186061;23;20409;-86
2022/09/10 06:26:03;;;;;;;1.80;1.10;;;16.50;99.90;;;;;;6186171;23;20924;-86
2022/09/10 06:28:30;;;;;;;1.50;1.07;;;16.60;99.90;;;;;;6186958;23;20413;-86
2022/09/10 06:30:57;;;;;;;2.47;1.10;;;16.60;99.90;;;;;;6189515;23;20437;-86
2022/09/10 06:33:25;;;;;;;2.13;0.97;;;16.70;99.90;;;;;;6187844;23;20473;-86
2022/09/10 06:35:53;;;;;;;1.60;0.90;;;16.70;99.90;;;;;;6186655;23;20463;-86
2022/09/10 06:38:19;;;;;;;2.40;1.10;;;16.80;99.90;;;;;;6186695;23;20924;-86
2022/09/10 06:40:53;;;;;;;3.63;1.27;;;16.90;99.90;;;;;;6186367;23;20387;-86
2022/09/10 06:43:21;;;;;;;2.17;1.10;;;16.90;99.90;;;;;;6186144;23;20398;-86
2022/09/10 06:45:48;;;;;;;2.90;1.13;;;17.00;99.90;;;;;;6185664;23;20414;-85
2022/09/10 06:48:17;;;;;;;1.97;1.07;;;17.00;99.90;;;;;;6188732;23;20416;-85
2022/09/10 06:50:52;;;;;;;3.10;1.47;;;17.10;99.90;;;;;;6185779;23;20441;-85
2022/09/10 06:53:20;;;;;;;4.40;0.87;;;17.20;99.90;;;;;;6202286;23;20420;-86
2022/09/10 06:55:47;;;;;;;2.40;1.20;;;17.30;99.90;;;;;;6193214;23;20411;-86
2022/09/10 06:58:13;;;;;;;8.67;1.40;;;17.40;99.90;;;;;;6185850;23;20401;-85
2022/09/10 07:00:41;;;;;;;3.00;1.10;;;17.40;99.90;;;;;;6186372;23;20414;-86
2022/09/10 07:03:08;;;;;;;1.60;0.90;;;17.40;99.90;;;;;;6197441;23;20478;-85
2022/09/10 07:05:35;;;;;;;4.07;1.20;;;17.40;99.90;;;;;;6200404;23;20399;-85
2022/09/10 07:08:04;;;;;;;2.40;0.90;;;17.50;99.90;;;;;;6187305;23;20413;-85
2022/09/10 07:10:31;;;;;;;2.30;0.93;;;17.40;99.90;;;;;;6186483;23;20524;-85
2022/09/10 07:12:59;;;;;;;1.40;0.70;;;17.30;99.90;;;;;;6186225;23;20905;-86
2022/09/10 07:15:27;;;;;;;3.50;1.90;;;17.30;99.90;;;;;;6197490;23;20449;-86
2022/09/10 07:17:53;;;;;;;3.57;1.27;;;17.30;99.90;;;;;;6189618;23;20415;-85
2022/09/10 07:20:28;;;;;;;2.50;1.00;;;17.40;99.90;;;;;;6191734;23;20877;-89
2022/09/10 07:22:55;;;;;;;2.33;0.90;;;17.40;99.90;;;;;;6186675;23;20477;-79
2022/09/10 07:25:24;;;;;;;2.33;0.97;;;17.50;99.90;;;;;;6183916;23;20394;-79
2022/09/10 07:27:51;;;;;;;3.43;0.80;;;17.50;99.90;;;;;;6185066;23;20429;-78
2022/09/10 07:30:21;;;;;;;2.73;1.30;;;17.50;99.90;;;;;;6185139;23;20771;-78
2022/09/10 07:32:49;;;;;;;1.27;0.70;;;17.60;99.90;;;;;;6185624;23;20913;-77
2022/09/10 07:35:16;;;;;;;4.83;1.20;;;17.50;99.90;;;;;;6185263;23;20405;-77
2022/09/10 07:37:45;;;;;;;1.80;0.90;;;17.50;99.90;;;;;;6184215;23;20937;-77
2022/09/10 07:40:13;;;;;;;2.50;1.00;;;17.40;99.90;;;;;;6184690;23;20399;-77
2022/09/10 07:42:42;;;;;;;3.20;1.27;;;17.40;99.90;;;;;;6185088;23;20411;-77
2022/09/10 07:45:14;;;;;;;2.87;0.80;;;17.60;99.90;;;;;;6184630;23;20786;-77
2022/09/10 07:47:41;;;;;;;2.57;1.00;;;17.60;99.90;;;;;;6183698;23;20777;-77
2022/09/10 07:50:09;;;;;;;2.17;1.10;;;17.60;99.90;;;;;;6184130;23;20449;-78
2022/09/10 07:52:35;;;;;;;1.60;0.87;;;17.70;99.90;;;;;;6183931;23;20407;-76
2022/09/10 07:55:02;;;;;;;1.27;0.87;;;18.00;99.90;;;;;;6184030;23;20411;-83
2022/09/10 07:57:30;;;;;;;2.70;1.20;;;18.20;99.90;;;;;;6188466;23;20419;-87
2022/09/10 07:59:59;;;;;;;1.80;0.80;;;18.40;99.90;;;;;;6190736;23;20414;-84
2022/09/10 08:02:26;;;;;;;3.53;0.93;;;18.50;99.90;;;;;;6190074;23;20399;-87
2022/09/10 08:04:52;;;;;;;2.50;1.20;;;18.70;99.90;;;;;;6187166;23;20407;-86
2022/09/10 08:07:19;;;;;;;3.53;1.17;;;18.70;99.90;;;;;;6190230;23;20477;-86
2022/09/10 08:09:47;;;;;;;3.43;1.00;;;18.80;99.90;;;;;;6189716;23;20406;-88
2022/09/10 08:12:15;;;;;;;2.00;0.97;;;19.20;99.90;;;;;;6190508;23;20436;-88
2022/09/10 08:14:42;;;;;;;6.53;0.90;;;19.70;99.90;;;;;;6196221;23;20434;-85
2022/09/10 08:17:10;;;;;;;1.27;0.73;;;19.90;99.90;;;;;;6205164;23;20489;-87
2022/09/10 08:19:37;;;;;;;4.43;1.03;;;19.70;99.90;;;;;;6203972;23;20928;-85
2022/09/10 08:22:03;;;;;;;1.43;0.87;;;19.80;99.90;;;;;;6192686;23;20395;-87
2022/09/10 08:24:30;;;;;;;1.60;1.00;;;19.70;99.90;;;;;;6190488;23;20418;-86
2022/09/10 08:26:57;;;;;;;1.60;0.80;;;19.50;99.90;;;;;;6187683;23;20528;-86
2022/09/10 08:29:24;;;;;;;1.83;0.73;;;19.40;99.90;;;;;;6186038;23;20398;-86
2022/09/10 08:31:50;;;;;;;2.40;1.10;;;19.50;99.90;;;;;;6186079;23;20442;-86
2022/09/10 08:34:19;;;;;;;2.20;0.80;;;19.60;99.90;;;;;;6186630;23;20474;-87
2022/09/10 08:36:46;;;;;;;1.53;1.03;;;20.10;99.90;;;;;;6187492;23;20426;-86
2022/09/10 08:39:13;;;;;;;2.70;0.83;;;20.50;99.90;;;;;;6187329;23;20402;-87
2022/09/10 08:41:47;;;;;;;2.50;1.30;;;20.50;99.90;;;;;;6197167;23;20390;-86
2022/09/10 08:44:26;;;;;;;1.63;0.90;;;20.30;99.90;;;;;;6196407;23;20458;-87
2022/09/10 08:46:58;;;;;;;2.17;0.93;;;20.50;99.90;;;;;;6192392;23;20524;-86
2022/09/10 08:49:33;;;;;;;1.60;0.80;;;20.70;99.90;;;;;;6199885;23;20387;-85
2022/09/10 08:52:04;;;;;;;2.10;0.80;;;20.60;99.90;;;;;;6187191;23;20436;-86
2022/09/10 08:54:36;;;;;;;2.90;2.07;;;20.60;99.90;;;;;;6186735;23;20394;-87
2022/09/10 08:57:06;;;;;;;1.30;0.80;;;20.40;99.90;;;;;;6187687;23;20922;-86
2022/09/10 08:59:39;;;;;;;1.60;0.80;;;20.20;99.90;;;;;;6189238;23;20414;-86
2022/09/10 09:02:18;;;;;;;2.73;0.80;;;20.20;99.90;;;;;;6209159;23;20398;-83
2022/09/10 09:04:52;;;;;;;2.87;1.00;;;20.00;99.90;;;;;;6198065;23;20379;-86
2022/09/10 09:07:21;;;;;;;3.73;1.30;;;19.90;99.90;;;;;;6188938;23;20434;-86
2022/09/10 09:16:13;;;;;;;2.43;1.00;;;20.70;99.90;;;;;;6160572;23;20420;-88
2022/09/10 09:22:05;;;;;;;2.83;1.20;;;21.20;99.90;;;;;;6153233;23;20758;-88
2022/09/10 09:27:56;;;;;;;1.70;0.70;;;23.10;97.00;;;;;;6151134;23;20804;-87
2022/09/10 09:33:51;;;;;;;2.73;1.17;;;22.40;96.50;;;;;;6152733;23;20435;-88
2022/09/10 09:36:43;;;;;;;1.93;0.77;;;21.50;95.20;;;;;;5981327;24;20953;-89
2022/09/10 09:42:19;;;;;;;4.40;1.40;;;21.10;96.10;;;;;;6155381;23;20542;-89
2022/09/10 09:45:13;;;;;;;3.30;2.53;;;21.40;95.30;;;;;;6154982;23;20387;-89
2022/09/10 09:48:11;;;;;;;;;;;;;;;;;;;;;
2022/09/10 09:54:54;;;;;;;3.30;1.13;;;21.60;94.80;;;;;;6064992;23;20917;-89
2022/09/10 09:57:59;;;;;;;2.83;1.00;;;21.10;95.30;;;;;;6083052;23;20461;-88
2022/09/10 10:00:35;;;;;;;4.03;1.60;;;20.90;96.60;;;;;;6164662;23;20439;-85
2022/09/10 10:03:12;;;;;;;3.60;1.07;;;21.10;97.10;;;;;;6169719;23;20391;-86
2022/09/10 10:05:39;;;;;;;3.40;1.10;;;21.00;96.40;;;;;;6176064;23;20957;-87
2022/09/10 10:08:07;;;;;;;2.07;1.20;;;20.90;96.30;;;;;;6172497;23;20411;-85
2022/09/10 10:10:34;;;;;;;2.90;1.10;;;20.70;96.40;;;;;;6164587;23;20427;-81
2022/09/10 10:13:02;;;;;;;3.13;1.47;;;20.70;97.10;;;;;;6161590;23;20433;-81
2022/09/10 10:15:37;;;;;;;3.93;1.70;;;20.60;96.40;;;;;;6163237;23;20431;-81
2022/09/10 10:18:30;;;;;;;2.33;0.80;;;20.60;97.30;;;;;;6165099;23;20455;-81
2022/09/10 10:21:13;;;;;;;3.20;1.20;;;20.70;96.70;;;;;;6166902;23;20431;-80
2022/09/10 10:23:40;;;;;;;2.80;1.40;;;20.70;97.00;;;;;;6162353;23;20391;-80
2022/09/10 10:26:29;;;;;;;7.97;4.47;;;20.80;97.20;;;;;;6162956;23;20493;-83
2022/09/10 10:28:59;;;;;;;4.80;1.17;;;21.00;97.00;;;;;;6167380;23;20388;-79
2022/09/10 10:31:37;;;;;;;4.03;2.07;;;21.00;96.50;;;;;;6177752;23;20453;-78
2022/09/10 10:34:33;;;;;;;4.13;1.27;;;20.90;97.00;;;;;;6170092;23;20485;-79
2022/09/10 10:37:07;;;;;;;2.60;1.10;;;21.00;96.70;;;;;;6161600;23;20423;-80
2022/09/10 10:39:54;;;;;;;3.87;0.97;;;20.90;96.40;;;;;;6165852;23;20379;-79
2022/09/10 10:42:27;;;;;;;2.37;1.07;;;21.80;96.20;;;;;;6161905;23;20398;-81
2022/09/10 10:45:25;;;;;;;3.93;1.40;;;22.30;95.10;;;;;;6162516;23;20388;-80
2022/09/10 10:48:00;;;;;;;4.10;1.23;;;22.40;94.20;;;;;;6161378;23;20384;-82
2022/09/10 10:50:34;;;;;;;2.27;1.20;;;22.40;94.60;;;;;;6161353;23;20423;-81
2022/09/10 10:53:17;;;;;;;2.80;1.67;;;22.50;95.10;;;;;;6161412;23;20388;-81
2022/09/10 10:55:50;;;;;;;3.23;1.20;;;22.80;95.30;;;;;;6161243;23;20391;-81
2022/09/10 10:58:34;;;;;;;2.83;1.47;;;23.20;94.70;;;;;;6160918;23;20387;-81
2022/09/10 11:01:06;;;;;;;2.77;0.90;;;24.00;94.00;;;;;;6170603;23;20457;-82
2022/09/10 11:03:41;;;;;;;3.40;1.93;;;24.50;92.80;;;;;;6163898;23;20421;-81
2022/09/10 11:06:13;;;;;;;2.53;1.13;;;24.90;91.80;;;;;;6160819;23;20474;-82
2022/09/10 11:08:45;;;;;;;3.67;1.40;;;25.20;91.30;;;;;;6159670;23;20392;-82
2022/09/10 11:11:16;;;;;;;1.93;1.00;;;25.30;90.70;;;;;;6164254;23;20449;-81
2022/09/10 11:13:49;;;;;;;5.63;1.87;;;25.20;90.30;;;;;;6164217;23;20405;-87
2022/09/10 11:16:22;;;;;;;2.60;1.40;;;25.00;89.90;;;;;;6160091;23;20393;-85
2022/09/10 11:18:53;;;;;;;1.73;0.83;;;24.50;90.30;;;;;;6165472;23;20415;-86
2022/09/10 11:21:28;;;;;;;3.73;1.23;;;24.00;90.50;;;;;;6162729;23;20423;-85
2022/09/10 11:24:00;;;;;;;2.30;1.30;;;23.60;91.30;;;;;;6164779;23;20489;-84
2022/09/10 11:26:32;;;;;;;2.73;1.63;;;23.10;92.30;;;;;;6174616;23;20418;-85
2022/09/10 11:29:12;;;;;;;2.70;1.70;;;22.70;93.50;;;;;;6182654;23;20447;-84
2022/09/10 11:31:44;;;;;;;4.23;1.83;;;22.60;95.30;;;;;;6183548;23;20477;-84
2022/09/10 11:34:16;;;;;;;4.23;1.77;;;22.60;95.70;;;;;;6181964;23;20400;-84
2022/09/10 11:36:48;;;;;;;2.13;1.20;;;23.20;95.70;;;;;;6178938;23;20491;-85
2022/09/10 11:39:20;;;;;;;2.70;1.20;;;24.50;93.60;;;;;;6171175;23;20391;-85
2022/09/10 11:41:51;;;;;;;2.70;1.00;;;25.10;91.50;;;;;;6175675;23;20492;-84
2022/09/10 11:44:37;;;;;;;2.03;1.20;;;25.00;90.30;;;;;;6183335;23;20382;-83
2022/09/10 11:47:13;;;;;;;2.13;1.07;;;24.50;90.20;;;;;;6171788;23;20509;-85
2022/09/10 11:49:47;;;;;;;3.93;1.67;;;24.00;90.40;;;;;;6168024;23;20424;-83
2022/09/10 11:52:14;;;;;;;2.87;1.27;;;23.40;90.20;;;;;;6174286;23;20437;-84
2022/09/10 11:54:45;;;;;;;2.17;1.03;;;23.00;91.30;;;;;;6175761;23;20396;-83
2022/09/10 11:57:22;;;;;;;3.07;0.90;;;22.50;91.60;;;;;;6181263;23;20380;-85
2022/09/10 12:00:06;;;;;;;2.80;1.27;;;21.80;93.00;;;;;;6175509;23;20391;-85
2022/09/10 12:03:00;;;;;;;3.20;1.50;;;21.30;94.30;;;;;;6172665;23;20438;-86
2022/09/10 12:05:33;;;;;;;2.83;1.77;;;21.10;96.40;;;;;;6172040;23;20394;-85
2022/09/10 12:08:09;;;;;;;2.60;1.30;;;21.00;97.60;;;;;;6171480;23;20407;-85
2022/09/10 12:10:46;;;;;;;3.70;1.37;;;21.00;99.00;;;;;;6170519;23;20431;-85
2022/09/10 12:13:13;;;;;;;2.13;1.50;;;21.30;99.10;;;;;;6171553;23;20431;-86
2022/09/10 12:15:54;;;;;;;2.93;1.50;;;22.20;97.80;;;;;;6174592;23;20408;-85
2022/09/10 12:18:26;;;;;;;3.53;1.17;;;24.50;94.00;;;;;;6172625;23;20397;-87
2022/09/10 12:20:56;;;;;;;2.23;1.17;;;26.10;87.50;;;;;;6169714;23;20500;-85
2022/09/10 12:23:27;;;;;;;3.30;1.30;;;25.60;85.10;;;;;;6172040;23;20436;-86
2022/09/10 12:25:59;;;;;;;1.80;1.13;;;24.90;85.80;;;;;;6172220;23;20460;-86
2022/09/10 12:29:24;;;;;;;3.30;1.40;;;25.60;87.00;;;;;;6170404;23;20419;-85
2022/09/10 12:32:31;;;;;;;2.27;2.00;;;26.80;80.40;;;;;;6107969;23;20452;-85
2022/09/10 12:35:43;;;;;;;3.23;1.20;;;26.20;79.50;;;;;;6099016;23;20446;-86
2022/09/10 12:38:52;;;;;;;2.53;1.60;;;26.00;79.80;;;;;;6169605;23;20484;-85
2022/09/10 12:41:55;;;;;;;3.13;1.30;;;25.70;80.30;;;;;;6109109;23;20528;-84
2022/09/10 12:44:44;;;;;;;3.40;1.70;;;25.10;82.40;;;;;;6119802;23;20391;-85
2022/09/10 12:47:45;;;;;;;5.13;3.50;;;24.80;82.40;;;;;;6147214;23;20412;-84
2022/09/10 12:50:23;;;;;;;3.70;1.83;;;24.60;82.80;;;;;;6161897;23;20941;-83
2022/09/10 12:53:03;;;;;;;3.83;1.70;;;24.60;82.60;;;;;;6163387;23;20433;-84
2022/09/10 12:55:40;;;;;;;3.27;1.43;;;24.70;82.10;;;;;;6176331;23;20396;-84
2022/09/10 12:58:18;;;;;;;2.43;1.10;;;24.70;80.00;;;;;;6169438;23;20389;-84
2022/09/10 13:01:00;;;;;;;3.17;1.50;;;24.60;80.70;;;;;;6164878;23;20959;-86
2022/09/10 13:03:28;;;;;;;4.53;1.40;;;24.40;81.80;;;;;;6163670;23;21118;-85
2022/09/10 13:05:58;;;;;;;3.90;1.87;;;24.00;81.70;;;;;;6160558;23;20464;-84
2022/09/10 13:08:27;;;;;;;7.03;4.23;;;23.70;82.30;;;;;;6163660;23;20454;-85
2022/09/10 13:11:14;;;;;;;3.00;1.00;;;23.40;82.70;;;;;;6164491;23;20934;-84
2022/09/10 13:13:44;;;;;;;5.67;1.30;;;22.50;80.90;;;;;;6166914;23;20989;-84
2022/09/10 13:16:16;;;;;;;1.90;1.10;;;21.90;83.40;;;;;;6170452;23;20387;-85
2022/09/10 13:18:42;;;;;;;9.17;4.13;;;21.70;84.60;;;;;;6177244;23;20479;-85
2022/09/10 13:21:47;;;;;;;9.77;6.30;;;21.80;86.30;;;;;;6170311;23;20435;-85
2022/09/10 13:24:52;;;;;;;3.93;2.03;;;22.10;85.20;;;;;;6169273;23;20444;-85
2022/09/10 13:27:22;;;;;;;7.60;4.23;;;22.30;84.30;;;;;;6173248;23;20418;-84
2022/09/10 13:29:53;;;;;;;9.23;5.57;;;22.80;82.80;;;;;;6173241;23;20399;-84
2022/09/10 13:32:28;;;;;;;5.53;4.40;;;23.00;81.20;;;;;;6167590;23;20445;-85
2022/09/10 13:35:35;;;;;;;6.23;3.60;;;23.20;80.10;;;;;;6165315;23;20398;-84